sensor_id;sensor_type;location;lat;lon;timestamp;P1;durP1;ratioP1;P2;durP2;ratioP2
15616;SDS011;7908;51.688;7.130;2022-10-16T00:01:50;42.27;;;28.07;;
15616;SDS011;7908;51.688;7.130;2022-10-16T00:04:19;34.60;;;22.73;;
15616;SDS011;7908;51.688;7.130;2022-10-16T00:06:47;41.73;;;26.80;;
15616;SDS011;7908;51.688;7.130;2022-10-16T00:09:17;38.23;;;25.57;;
15616;SDS011;7908;51.688;7.130;2022-10-16T00:11:45;24.67;;;19.40;;
15616;SDS011;7908;51.688;7.130;2022-10-16T00:14:14;24.67;;;17.33;;
15616;SDS011;7908;51.688;7.130;2022-10-16T00:16:46;29.40;;;21.33;;
15616;SDS011;7908;51.688;7.130;2022-10-16T00:19:15;29.37;;;20.10;;
15616;SDS011;7908;51.688;7.130;2022-10-16T00:21:44;29.50;;;21.20;;
15616;SDS011;7908;51.688;7.130;2022-10-16T00:24:13;27.80;;;21.00;;
15616;SDS011;7908;51.688;7.130;2022-10-16T00:26:42;31.63;;;23.97;;
15616;SDS011;7908;51.688;7.130;2022-10-16T00:29:10;32.87;;;24.40;;
15616;SDS011;7908;51.688;7.130;2022-10-16T00:31:39;26.97;;;19.63;;
15616;SDS011;7908;51.688;7.130;2022-10-16T00:34:10;22.27;;;17.30;;
15616;SDS011;7908;51.688;7.130;2022-10-16T00:36:39;21.37;;;17.10;;
15616;SDS011;7908;51.688;7.130;2022-10-16T00:39:07;18.80;;;14.97;;
15616;SDS011;7908;51.688;7.130;2022-10-16T00:41:36;12.67;;;10.97;;
15616;SDS011;7908;51.688;7.130;2022-10-16T00:47:08;17.17;;;13.17;;
15616;SDS011;7908;51.688;7.130;2022-10-16T00:49:39;14.80;;;11.57;;
15616;SDS011;7908;51.688;7.130;2022-10-16T00:52:11;22.80;;;15.13;;
15616;SDS011;7908;51.688;7.130;2022-10-16T00:54:42;20.70;;;14.53;;
15616;SDS011;7908;51.688;7.130;2022-10-16T00:57:10;15.30;;;11.33;;
15616;SDS011;7908;51.688;7.130;2022-10-16T00:59:44;17.73;;;11.43;;
15616;SDS011;7908;51.688;7.130;2022-10-16T01:02:14;18.17;;;13.10;;
15616;SDS011;7908;51.688;7.130;2022-10-16T01:04:45;18.40;;;15.20;;
15616;SDS011;7908;51.688;7.130;2022-10-16T01:07:20;18.17;;;14.20;;
15616;SDS011;7908;51.688;7.130;2022-10-16T01:10:11;17.93;;;13.73;;
15616;SDS011;7908;51.688;7.130;2022-10-16T01:12:51;15.23;;;11.50;;
15616;SDS011;7908;51.688;7.130;2022-10-16T01:15:26;12.77;;;10.07;;
15616;SDS011;7908;51.688;7.130;2022-10-16T01:18:00;14.97;;;10.10;;
15616;SDS011;7908;51.688;7.130;2022-10-16T01:20:34;11.67;;;9.70;;
15616;SDS011;7908;51.688;7.130;2022-10-16T01:23:11;12.77;;;8.10;;
15616;SDS011;7908;51.688;7.130;2022-10-16T01:25:54;9.87;;;7.60;;
15616;SDS011;7908;51.688;7.130;2022-10-16T01:28:36;10.60;;;8.00;;
15616;SDS011;7908;51.688;7.130;2022-10-16T01:31:10;10.47;;;7.10;;
15616;SDS011;7908;51.688;7.130;2022-10-16T01:33:43;8.60;;;7.53;;
15616;SDS011;7908;51.688;7.130;2022-10-16T01:36:15;8.53;;;7.63;;
15616;SDS011;7908;51.688;7.130;2022-10-16T01:42:29;10.13;;;7.90;;
15616;SDS011;7908;51.688;7.130;2022-10-16T01:45:05;9.67;;;7.23;;
15616;SDS011;7908;51.688;7.130;2022-10-16T01:47:38;9.23;;;7.80;;
15616;SDS011;7908;51.688;7.130;2022-10-16T01:50:09;11.83;;;7.73;;
15616;SDS011;7908;51.688;7.130;2022-10-16T01:52:40;9.67;;;8.40;;
15616;SDS011;7908;51.688;7.130;2022-10-16T01:55:13;12.40;;;7.80;;
15616;SDS011;7908;51.688;7.130;2022-10-16T01:57:46;9.47;;;7.40;;
15616;SDS011;7908;51.688;7.130;2022-10-16T02:00:19;8.23;;;6.70;;
15616;SDS011;7908;51.688;7.130;2022-10-16T02:02:53;8.43;;;7.00;;
15616;SDS011;7908;51.688;7.130;2022-10-16T02:05:25;9.93;;;7.40;;
15616;SDS011;7908;51.688;7.130;2022-10-16T02:07:59;8.17;;;6.60;;
15616;SDS011;7908;51.688;7.130;2022-10-16T02:10:31;8.40;;;6.87;;
15616;SDS011;7908;51.688;7.130;2022-10-16T02:13:03;10.63;;;6.83;;
15616;SDS011;7908;51.688;7.130;2022-10-16T02:15:37;8.07;;;6.90;;
15616;SDS011;7908;51.688;7.130;2022-10-16T02:18:06;10.70;;;7.30;;
15616;SDS011;7908;51.688;7.130;2022-10-16T02:20:40;11.07;;;7.17;;
15616;SDS011;7908;51.688;7.130;2022-10-16T02:23:17;11.23;;;6.60;;
15616;SDS011;7908;51.688;7.130;2022-10-16T02:25:52;8.23;;;6.80;;
15616;SDS011;7908;51.688;7.130;2022-10-16T02:28:23;9.03;;;6.80;;
15616;SDS011;7908;51.688;7.130;2022-10-16T02:31:01;8.97;;;7.23;;
15616;SDS011;7908;51.688;7.130;2022-10-16T02:33:33;9.13;;;6.40;;
15616;SDS011;7908;51.688;7.130;2022-10-16T02:36:04;8.20;;;6.30;;
15616;SDS011;7908;51.688;7.130;2022-10-16T02:38:33;8.77;;;6.30;;
15616;SDS011;7908;51.688;7.130;2022-10-16T02:41:03;12.23;;;6.47;;
15616;SDS011;7908;51.688;7.130;2022-10-16T02:43:34;8.77;;;5.93;;
15616;SDS011;7908;51.688;7.130;2022-10-16T02:46:04;6.23;;;5.63;;
15616;SDS011;7908;51.688;7.130;2022-10-16T02:48:34;6.93;;;5.43;;
15616;SDS011;7908;51.688;7.130;2022-10-16T02:51:03;6.63;;;5.23;;
15616;SDS011;7908;51.688;7.130;2022-10-16T02:53:32;10.03;;;5.90;;
15616;SDS011;7908;51.688;7.130;2022-10-16T02:56:00;8.33;;;5.70;;
15616;SDS011;7908;51.688;7.130;2022-10-16T02:58:29;5.97;;;4.53;;
15616;SDS011;7908;51.688;7.130;2022-10-16T03:00:58;9.97;;;5.00;;
15616;SDS011;7908;51.688;7.130;2022-10-16T03:03:28;5.53;;;4.30;;
15616;SDS011;7908;51.688;7.130;2022-10-16T03:05:57;6.47;;;4.30;;
15616;SDS011;7908;51.688;7.130;2022-10-16T03:08:26;6.17;;;4.07;;
15616;SDS011;7908;51.688;7.130;2022-10-16T03:10:56;7.73;;;4.37;;
15616;SDS011;7908;51.688;7.130;2022-10-16T03:13:25;6.60;;;4.20;;
15616;SDS011;7908;51.688;7.130;2022-10-16T03:15:54;5.40;;;4.20;;
15616;SDS011;7908;51.688;7.130;2022-10-16T03:18:23;7.77;;;4.23;;
15616;SDS011;7908;51.688;7.130;2022-10-16T03:20:53;6.07;;;3.87;;
15616;SDS011;7908;51.688;7.130;2022-10-16T03:23:22;5.03;;;3.50;;
15616;SDS011;7908;51.688;7.130;2022-10-16T03:25:51;4.87;;;3.80;;
15616;SDS011;7908;51.688;7.130;2022-10-16T03:28:20;3.60;;;3.20;;
15616;SDS011;7908;51.688;7.130;2022-10-16T03:30:49;3.47;;;3.17;;
15616;SDS011;7908;51.688;7.130;2022-10-16T03:33:17;6.20;;;3.50;;
15616;SDS011;7908;51.688;7.130;2022-10-16T03:35:50;4.33;;;3.43;;
15616;SDS011;7908;51.688;7.130;2022-10-16T03:38:21;4.80;;;3.47;;
15616;SDS011;7908;51.688;7.130;2022-10-16T03:40:50;5.03;;;3.00;;
15616;SDS011;7908;51.688;7.130;2022-10-16T03:43:19;4.37;;;3.27;;
15616;SDS011;7908;51.688;7.130;2022-10-16T03:45:47;4.43;;;3.50;;
15616;SDS011;7908;51.688;7.130;2022-10-16T03:48:17;4.23;;;3.87;;
15616;SDS011;7908;51.688;7.130;2022-10-16T03:50:46;8.27;;;7.43;;
15616;SDS011;7908;51.688;7.130;2022-10-16T03:53:17;8.53;;;7.73;;
15616;SDS011;7908;51.688;7.130;2022-10-16T03:55:47;7.67;;;7.03;;
15616;SDS011;7908;51.688;7.130;2022-10-16T03:58:17;7.43;;;6.73;;
15616;SDS011;7908;51.688;7.130;2022-10-16T04:00:46;6.53;;;5.27;;
15616;SDS011;7908;51.688;7.130;2022-10-16T04:03:15;5.50;;;3.93;;
15616;SDS011;7908;51.688;7.130;2022-10-16T04:05:45;5.07;;;4.27;;
15616;SDS011;7908;51.688;7.130;2022-10-16T04:08:15;5.43;;;4.37;;
15616;SDS011;7908;51.688;7.130;2022-10-16T04:10:45;5.53;;;4.03;;
15616;SDS011;7908;51.688;7.130;2022-10-16T04:13:15;6.00;;;4.57;;
15616;SDS011;7908;51.688;7.130;2022-10-16T04:15:50;5.33;;;4.90;;
15616;SDS011;7908;51.688;7.130;2022-10-16T04:18:18;11.20;;;10.07;;
15616;SDS011;7908;51.688;7.130;2022-10-16T04:20:47;7.23;;;6.60;;
15616;SDS011;7908;51.688;7.130;2022-10-16T04:23:16;6.80;;;6.10;;
15616;SDS011;7908;51.688;7.130;2022-10-16T04:25:47;5.50;;;5.00;;
15616;SDS011;7908;51.688;7.130;2022-10-16T04:28:17;4.93;;;4.00;;
15616;SDS011;7908;51.688;7.130;2022-10-16T04:30:47;4.50;;;4.10;;
15616;SDS011;7908;51.688;7.130;2022-10-16T04:33:15;4.90;;;4.50;;
15616;SDS011;7908;51.688;7.130;2022-10-16T04:35:44;4.17;;;3.60;;
15616;SDS011;7908;51.688;7.130;2022-10-16T04:38:13;6.07;;;4.30;;
15616;SDS011;7908;51.688;7.130;2022-10-16T04:40:42;7.23;;;4.50;;
15616;SDS011;7908;51.688;7.130;2022-10-16T04:43:13;5.97;;;4.20;;
15616;SDS011;7908;51.688;7.130;2022-10-16T04:45:43;4.57;;;3.80;;
15616;SDS011;7908;51.688;7.130;2022-10-16T04:48:12;7.73;;;3.20;;
15616;SDS011;7908;51.688;7.130;2022-10-16T04:50:41;4.53;;;3.33;;
15616;SDS011;7908;51.688;7.130;2022-10-16T04:53:10;3.00;;;2.50;;
15616;SDS011;7908;51.688;7.130;2022-10-16T04:55:40;5.20;;;2.73;;
15616;SDS011;7908;51.688;7.130;2022-10-16T04:58:09;3.20;;;2.33;;
15616;SDS011;7908;51.688;7.130;2022-10-16T05:00:39;5.07;;;2.57;;
15616;SDS011;7908;51.688;7.130;2022-10-16T05:03:09;3.20;;;2.40;;
15616;SDS011;7908;51.688;7.130;2022-10-16T05:05:41;4.13;;;2.50;;
15616;SDS011;7908;51.688;7.130;2022-10-16T05:08:11;3.57;;;2.50;;
15616;SDS011;7908;51.688;7.130;2022-10-16T05:10:42;6.37;;;2.57;;
15616;SDS011;7908;51.688;7.130;2022-10-16T05:13:12;5.50;;;2.60;;
15616;SDS011;7908;51.688;7.130;2022-10-16T05:15:41;4.47;;;3.50;;
15616;SDS011;7908;51.688;7.130;2022-10-16T05:18:12;4.63;;;3.67;;
15616;SDS011;7908;51.688;7.130;2022-10-16T05:20:41;6.00;;;5.50;;
15616;SDS011;7908;51.688;7.130;2022-10-16T05:23:10;6.43;;;5.77;;
15616;SDS011;7908;51.688;7.130;2022-10-16T05:25:43;4.77;;;3.60;;
15616;SDS011;7908;51.688;7.130;2022-10-16T05:28:21;5.13;;;3.20;;
15616;SDS011;7908;51.688;7.130;2022-10-16T05:30:49;5.20;;;2.47;;
15616;SDS011;7908;51.688;7.130;2022-10-16T05:33:20;4.20;;;2.60;;
15616;SDS011;7908;51.688;7.130;2022-10-16T05:35:50;2.90;;;2.27;;
15616;SDS011;7908;51.688;7.130;2022-10-16T05:38:19;3.47;;;1.77;;
15616;SDS011;7908;51.688;7.130;2022-10-16T05:40:52;2.80;;;2.00;;
15616;SDS011;7908;51.688;7.130;2022-10-16T05:43:23;3.87;;;2.30;;
15616;SDS011;7908;51.688;7.130;2022-10-16T05:45:55;3.43;;;2.13;;
15616;SDS011;7908;51.688;7.130;2022-10-16T05:48:26;3.60;;;2.20;;
15616;SDS011;7908;51.688;7.130;2022-10-16T05:50:56;2.47;;;1.97;;
15616;SDS011;7908;51.688;7.130;2022-10-16T05:53:26;4.83;;;2.30;;
15616;SDS011;7908;51.688;7.130;2022-10-16T05:55:55;4.03;;;2.30;;
15616;SDS011;7908;51.688;7.130;2022-10-16T05:58:25;3.37;;;2.30;;
15616;SDS011;7908;51.688;7.130;2022-10-16T06:00:57;5.60;;;2.47;;
15616;SDS011;7908;51.688;7.130;2022-10-16T06:03:33;2.83;;;2.10;;
15616;SDS011;7908;51.688;7.130;2022-10-16T06:06:07;4.43;;;2.20;;
15616;SDS011;7908;51.688;7.130;2022-10-16T06:08:38;3.03;;;2.10;;
15616;SDS011;7908;51.688;7.130;2022-10-16T06:11:09;2.90;;;2.10;;
15616;SDS011;7908;51.688;7.130;2022-10-16T06:13:39;3.70;;;2.40;;
15616;SDS011;7908;51.688;7.130;2022-10-16T06:16:09;2.83;;;2.20;;
15616;SDS011;7908;51.688;7.130;2022-10-16T06:18:40;7.90;;;2.70;;
15616;SDS011;7908;51.688;7.130;2022-10-16T06:21:09;3.00;;;2.30;;
15616;SDS011;7908;51.688;7.130;2022-10-16T06:23:39;2.67;;;2.00;;
15616;SDS011;7908;51.688;7.130;2022-10-16T06:26:09;4.73;;;2.60;;
15616;SDS011;7908;51.688;7.130;2022-10-16T06:28:40;4.33;;;2.40;;
15616;SDS011;7908;51.688;7.130;2022-10-16T06:31:09;7.87;;;5.53;;
15616;SDS011;7908;51.688;7.130;2022-10-16T06:33:40;5.27;;;3.07;;
15616;SDS011;7908;51.688;7.130;2022-10-16T06:36:11;3.53;;;2.53;;
15616;SDS011;7908;51.688;7.130;2022-10-16T06:38:41;3.90;;;2.80;;
15616;SDS011;7908;51.688;7.130;2022-10-16T06:41:11;2.80;;;1.97;;
15616;SDS011;7908;51.688;7.130;2022-10-16T06:43:45;4.10;;;2.50;;
15616;SDS011;7908;51.688;7.130;2022-10-16T06:46:15;4.33;;;2.50;;
15616;SDS011;7908;51.688;7.130;2022-10-16T06:48:47;3.13;;;2.50;;
15616;SDS011;7908;51.688;7.130;2022-10-16T06:51:17;3.00;;;2.37;;
15616;SDS011;7908;51.688;7.130;2022-10-16T06:53:52;2.50;;;2.30;;
15616;SDS011;7908;51.688;7.130;2022-10-16T06:56:31;3.30;;;2.40;;
15616;SDS011;7908;51.688;7.130;2022-10-16T06:59:01;2.63;;;2.43;;
15616;SDS011;7908;51.688;7.130;2022-10-16T07:01:32;7.27;;;2.60;;
15616;SDS011;7908;51.688;7.130;2022-10-16T07:04:04;6.07;;;2.73;;
15616;SDS011;7908;51.688;7.130;2022-10-16T07:06:34;2.67;;;2.40;;
15616;SDS011;7908;51.688;7.130;2022-10-16T07:09:05;3.40;;;2.50;;
15616;SDS011;7908;51.688;7.130;2022-10-16T07:11:36;5.27;;;3.07;;
15616;SDS011;7908;51.688;7.130;2022-10-16T07:14:12;3.50;;;2.83;;
15616;SDS011;7908;51.688;7.130;2022-10-16T07:16:44;3.47;;;2.60;;
15616;SDS011;7908;51.688;7.130;2022-10-16T07:19:19;3.67;;;2.53;;
15616;SDS011;7908;51.688;7.130;2022-10-16T07:21:48;4.87;;;2.37;;
15616;SDS011;7908;51.688;7.130;2022-10-16T07:24:17;3.87;;;2.40;;
15616;SDS011;7908;51.688;7.130;2022-10-16T07:26:53;6.03;;;2.70;;
15616;SDS011;7908;51.688;7.130;2022-10-16T07:29:25;3.07;;;2.57;;
15616;SDS011;7908;51.688;7.130;2022-10-16T07:31:55;4.93;;;2.87;;
15616;SDS011;7908;51.688;7.130;2022-10-16T07:34:26;5.17;;;2.70;;
15616;SDS011;7908;51.688;7.130;2022-10-16T07:36:56;5.23;;;2.50;;
15616;SDS011;7908;51.688;7.130;2022-10-16T07:39:25;4.73;;;2.60;;
15616;SDS011;7908;51.688;7.130;2022-10-16T07:41:55;7.07;;;2.43;;
15616;SDS011;7908;51.688;7.130;2022-10-16T07:44:23;5.97;;;2.50;;
15616;SDS011;7908;51.688;7.130;2022-10-16T07:46:53;5.07;;;2.50;;
15616;SDS011;7908;51.688;7.130;2022-10-16T07:49:22;4.83;;;2.53;;
15616;SDS011;7908;51.688;7.130;2022-10-16T07:51:55;5.80;;;2.60;;
15616;SDS011;7908;51.688;7.130;2022-10-16T07:54:24;4.83;;;2.20;;
15616;SDS011;7908;51.688;7.130;2022-10-16T07:56:53;6.17;;;2.73;;
15616;SDS011;7908;51.688;7.130;2022-10-16T07:59:22;6.00;;;2.50;;
15616;SDS011;7908;51.688;7.130;2022-10-16T08:01:51;3.43;;;2.20;;
15616;SDS011;7908;51.688;7.130;2022-10-16T08:04:22;3.97;;;2.20;;
15616;SDS011;7908;51.688;7.130;2022-10-16T08:06:52;2.80;;;2.00;;
15616;SDS011;7908;51.688;7.130;2022-10-16T08:09:24;3.70;;;2.23;;
15616;SDS011;7908;51.688;7.130;2022-10-16T08:11:57;6.10;;;2.70;;
15616;SDS011;7908;51.688;7.130;2022-10-16T08:14:28;4.33;;;2.23;;
15616;SDS011;7908;51.688;7.130;2022-10-16T08:16:57;4.03;;;2.33;;
15616;SDS011;7908;51.688;7.130;2022-10-16T08:19:28;3.47;;;2.20;;
15616;SDS011;7908;51.688;7.130;2022-10-16T08:22:04;4.93;;;2.30;;
15616;SDS011;7908;51.688;7.130;2022-10-16T08:24:35;4.93;;;2.30;;
15616;SDS011;7908;51.688;7.130;2022-10-16T08:27:05;3.60;;;2.20;;
15616;SDS011;7908;51.688;7.130;2022-10-16T08:29:36;5.30;;;2.37;;
15616;SDS011;7908;51.688;7.130;2022-10-16T08:32:07;5.77;;;2.63;;
15616;SDS011;7908;51.688;7.130;2022-10-16T08:34:36;4.43;;;2.60;;
15616;SDS011;7908;51.688;7.130;2022-10-16T08:37:07;4.57;;;2.40;;
15616;SDS011;7908;51.688;7.130;2022-10-16T08:39:40;6.67;;;2.43;;
15616;SDS011;7908;51.688;7.130;2022-10-16T08:42:17;5.00;;;2.07;;
15616;SDS011;7908;51.688;7.130;2022-10-16T08:47:54;3.43;;;2.47;;
15616;SDS011;7908;51.688;7.130;2022-10-16T08:50:31;5.50;;;2.37;;
15616;SDS011;7908;51.688;7.130;2022-10-16T08:53:11;2.70;;;2.10;;
15616;SDS011;7908;51.688;7.130;2022-10-16T08:55:51;4.80;;;2.10;;
15616;SDS011;7908;51.688;7.130;2022-10-16T08:58:22;6.77;;;2.53;;
15616;SDS011;7908;51.688;7.130;2022-10-16T09:00:58;6.10;;;2.10;;
15616;SDS011;7908;51.688;7.130;2022-10-16T09:03:36;6.60;;;2.37;;
15616;SDS011;7908;51.688;7.130;2022-10-16T09:06:37;4.03;;;2.33;;
15616;SDS011;7908;51.688;7.130;2022-10-16T09:09:21;2.80;;;1.90;;
15616;SDS011;7908;51.688;7.130;2022-10-16T09:12:05;6.40;;;2.10;;
15616;SDS011;7908;51.688;7.130;2022-10-16T09:14:57;3.60;;;1.80;;
15616;SDS011;7908;51.688;7.130;2022-10-16T09:17:37;5.10;;;1.83;;
15616;SDS011;7908;51.688;7.130;2022-10-16T09:20:18;4.10;;;2.00;;
15616;SDS011;7908;51.688;7.130;2022-10-16T09:23:00;5.20;;;1.73;;
15616;SDS011;7908;51.688;7.130;2022-10-16T09:26:09;5.07;;;1.67;;
15616;SDS011;7908;51.688;7.130;2022-10-16T09:28:43;5.27;;;1.40;;
15616;SDS011;7908;51.688;7.130;2022-10-16T09:31:15;6.13;;;1.50;;
15616;SDS011;7908;51.688;7.130;2022-10-16T09:33:52;4.27;;;1.83;;
15616;SDS011;7908;51.688;7.130;2022-10-16T09:36:40;3.43;;;1.40;;
15616;SDS011;7908;51.688;7.130;2022-10-16T09:39:16;5.67;;;1.47;;
15616;SDS011;7908;51.688;7.130;2022-10-16T09:41:48;4.23;;;2.30;;
15616;SDS011;7908;51.688;7.130;2022-10-16T09:44:22;5.90;;;1.87;;
15616;SDS011;7908;51.688;7.130;2022-10-16T09:47:10;3.90;;;1.30;;
15616;SDS011;7908;51.688;7.130;2022-10-16T09:49:50;5.50;;;1.60;;
15616;SDS011;7908;51.688;7.130;2022-10-16T09:52:28;6.93;;;1.50;;
15616;SDS011;7908;51.688;7.130;2022-10-16T09:55:12;4.70;;;1.37;;
15616;SDS011;7908;51.688;7.130;2022-10-16T09:57:54;5.30;;;1.20;;
15616;SDS011;7908;51.688;7.130;2022-10-16T10:00:30;3.93;;;1.33;;
15616;SDS011;7908;51.688;7.130;2022-10-16T10:03:10;3.70;;;0.93;;
15616;SDS011;7908;51.688;7.130;2022-10-16T10:06:05;2.73;;;1.10;;
15616;SDS011;7908;51.688;7.130;2022-10-16T10:09:00;4.17;;;1.20;;
15616;SDS011;7908;51.688;7.130;2022-10-16T10:11:44;3.53;;;1.20;;
15616;SDS011;7908;51.688;7.130;2022-10-16T10:14:26;3.17;;;1.20;;
15616;SDS011;7908;51.688;7.130;2022-10-16T10:17:23;4.33;;;1.30;;
15616;SDS011;7908;51.688;7.130;2022-10-16T10:19:57;5.80;;;1.37;;
15616;SDS011;7908;51.688;7.130;2022-10-16T10:23:00;3.80;;;1.17;;
15616;SDS011;7908;51.688;7.130;2022-10-16T10:25:53;2.20;;;0.90;;
15616;SDS011;7908;51.688;7.130;2022-10-16T10:28:44;3.50;;;0.77;;
15616;SDS011;7908;51.688;7.130;2022-10-16T10:31:29;3.83;;;1.03;;
15616;SDS011;7908;51.688;7.130;2022-10-16T10:34:32;3.67;;;1.27;;
15616;SDS011;7908;51.688;7.130;2022-10-16T10:37:14;5.07;;;1.20;;
15616;SDS011;7908;51.688;7.130;2022-10-16T10:40:04;2.77;;;1.20;;
15616;SDS011;7908;51.688;7.130;2022-10-16T10:42:46;1.10;;;0.70;;
15616;SDS011;7908;51.688;7.130;2022-10-16T10:45:26;2.47;;;1.10;;
15616;SDS011;7908;51.688;7.130;2022-10-16T10:51:14;2.67;;;0.93;;
15616;SDS011;7908;51.688;7.130;2022-10-16T10:54:00;2.30;;;0.80;;
15616;SDS011;7908;51.688;7.130;2022-10-16T10:56:49;6.00;;;1.80;;
15616;SDS011;7908;51.688;7.130;2022-10-16T10:59:46;3.50;;;1.10;;
15616;SDS011;7908;51.688;7.130;2022-10-16T11:02:33;2.30;;;0.83;;
15616;SDS011;7908;51.688;7.130;2022-10-16T11:05:21;4.00;;;1.20;;
15616;SDS011;7908;51.688;7.130;2022-10-16T11:08:31;2.03;;;0.93;;
15616;SDS011;7908;51.688;7.130;2022-10-16T11:11:08;3.53;;;0.87;;
15616;SDS011;7908;51.688;7.130;2022-10-16T11:13:43;1.53;;;0.80;;
15616;SDS011;7908;51.688;7.130;2022-10-16T11:16:27;3.03;;;1.00;;
15616;SDS011;7908;51.688;7.130;2022-10-16T11:19:04;2.57;;;0.90;;
15616;SDS011;7908;51.688;7.130;2022-10-16T11:21:46;2.47;;;0.90;;
15616;SDS011;7908;51.688;7.130;2022-10-16T11:24:35;2.73;;;0.90;;
15616;SDS011;7908;51.688;7.130;2022-10-16T11:27:30;4.27;;;1.13;;
15616;SDS011;7908;51.688;7.130;2022-10-16T11:30:13;1.77;;;0.90;;
15616;SDS011;7908;51.688;7.130;2022-10-16T11:33:04;1.90;;;0.77;;
15616;SDS011;7908;51.688;7.130;2022-10-16T11:35:51;2.77;;;0.83;;
15616;SDS011;7908;51.688;7.130;2022-10-16T11:38:36;4.00;;;1.00;;
15616;SDS011;7908;51.688;7.130;2022-10-16T11:41:26;2.93;;;1.07;;
15616;SDS011;7908;51.688;7.130;2022-10-16T11:44:09;4.17;;;1.23;;
15616;SDS011;7908;51.688;7.130;2022-10-16T11:46:50;1.63;;;0.80;;
15616;SDS011;7908;51.688;7.130;2022-10-16T11:49:55;1.87;;;0.67;;
15616;SDS011;7908;51.688;7.130;2022-10-16T11:52:38;2.80;;;0.80;;
15616;SDS011;7908;51.688;7.130;2022-10-16T11:55:33;2.30;;;0.80;;
15616;SDS011;7908;51.688;7.130;2022-10-16T11:58:16;4.17;;;0.90;;
15616;SDS011;7908;51.688;7.130;2022-10-16T12:01:10;2.17;;;0.60;;
15616;SDS011;7908;51.688;7.130;2022-10-16T12:04:14;2.53;;;0.77;;
15616;SDS011;7908;51.688;7.130;2022-10-16T12:06:51;3.63;;;1.27;;
15616;SDS011;7908;51.688;7.130;2022-10-16T12:09:29;2.73;;;0.80;;
15616;SDS011;7908;51.688;7.130;2022-10-16T12:12:23;2.97;;;0.87;;
15616;SDS011;7908;51.688;7.130;2022-10-16T12:18:21;3.13;;;0.80;;
15616;SDS011;7908;51.688;7.130;2022-10-16T12:21:08;4.43;;;1.00;;
15616;SDS011;7908;51.688;7.130;2022-10-16T12:23:55;2.80;;;0.70;;
15616;SDS011;7908;51.688;7.130;2022-10-16T12:26:40;1.50;;;0.70;;
15616;SDS011;7908;51.688;7.130;2022-10-16T12:29:28;3.73;;;0.83;;
15616;SDS011;7908;51.688;7.130;2022-10-16T12:32:20;2.53;;;0.93;;
15616;SDS011;7908;51.688;7.130;2022-10-16T12:35:18;3.73;;;1.10;;
15616;SDS011;7908;51.688;7.130;2022-10-16T12:38:04;1.47;;;0.70;;
15616;SDS011;7908;51.688;7.130;2022-10-16T12:40:55;2.70;;;0.83;;
15616;SDS011;7908;51.688;7.130;2022-10-16T12:43:38;2.33;;;0.63;;
15616;SDS011;7908;51.688;7.130;2022-10-16T12:46:23;3.77;;;1.20;;
15616;SDS011;7908;51.688;7.130;2022-10-16T12:49:21;2.83;;;1.00;;
15616;SDS011;7908;51.688;7.130;2022-10-16T12:51:59;4.30;;;1.00;;
15616;SDS011;7908;51.688;7.130;2022-10-16T12:54:35;3.67;;;1.20;;
15616;SDS011;7908;51.688;7.130;2022-10-16T12:57:13;2.03;;;1.60;;
15616;SDS011;7908;51.688;7.130;2022-10-16T13:00:06;3.47;;;2.10;;
15616;SDS011;7908;51.688;7.130;2022-10-16T13:02:51;2.30;;;1.70;;
15616;SDS011;7908;51.688;7.130;2022-10-16T13:05:57;4.17;;;2.00;;
15616;SDS011;7908;51.688;7.130;2022-10-16T13:08:43;5.33;;;1.90;;
15616;SDS011;7908;51.688;7.130;2022-10-16T13:11:43;2.23;;;1.47;;
15616;SDS011;7908;51.688;7.130;2022-10-16T13:14:46;3.70;;;1.60;;
15616;SDS011;7908;51.688;7.130;2022-10-16T13:17:46;3.40;;;1.77;;
15616;SDS011;7908;51.688;7.130;2022-10-16T13:20:31;3.27;;;1.93;;
15616;SDS011;7908;51.688;7.130;2022-10-16T13:23:32;3.07;;;1.70;;
15616;SDS011;7908;51.688;7.130;2022-10-16T13:26:25;3.70;;;2.00;;
15616;SDS011;7908;51.688;7.130;2022-10-16T13:29:05;2.73;;;2.00;;
15616;SDS011;7908;51.688;7.130;2022-10-16T13:31:42;3.13;;;1.90;;
15616;SDS011;7908;51.688;7.130;2022-10-16T13:34:21;3.70;;;2.10;;
15616;SDS011;7908;51.688;7.130;2022-10-16T13:36:53;5.37;;;1.83;;
15616;SDS011;7908;51.688;7.130;2022-10-16T13:39:35;5.90;;;1.90;;
15616;SDS011;7908;51.688;7.130;2022-10-16T13:42:30;4.20;;;1.70;;
15616;SDS011;7908;51.688;7.130;2022-10-16T13:45:04;2.20;;;1.40;;
15616;SDS011;7908;51.688;7.130;2022-10-16T13:48:05;4.03;;;1.33;;
15616;SDS011;7908;51.688;7.130;2022-10-16T13:50:40;4.60;;;1.50;;
15616;SDS011;7908;51.688;7.130;2022-10-16T13:53:17;4.43;;;1.30;;
15616;SDS011;7908;51.688;7.130;2022-10-16T13:55:58;4.23;;;1.40;;
15616;SDS011;7908;51.688;7.130;2022-10-16T13:58:41;2.00;;;1.40;;
15616;SDS011;7908;51.688;7.130;2022-10-16T14:01:30;4.00;;;2.80;;
15616;SDS011;7908;51.688;7.130;2022-10-16T14:04:13;3.13;;;2.30;;
15616;SDS011;7908;51.688;7.130;2022-10-16T14:07:00;3.87;;;1.60;;
15616;SDS011;7908;51.688;7.130;2022-10-16T14:09:48;3.93;;;1.53;;
15616;SDS011;7908;51.688;7.130;2022-10-16T14:12:31;3.33;;;1.90;;
15616;SDS011;7908;51.688;7.130;2022-10-16T14:15:17;4.07;;;1.50;;
15616;SDS011;7908;51.688;7.130;2022-10-16T14:18:13;2.13;;;1.50;;
15616;SDS011;7908;51.688;7.130;2022-10-16T14:20:51;2.73;;;1.60;;
15616;SDS011;7908;51.688;7.130;2022-10-16T14:23:38;2.80;;;1.30;;
15616;SDS011;7908;51.688;7.130;2022-10-16T14:26:16;2.40;;;1.23;;
15616;SDS011;7908;51.688;7.130;2022-10-16T14:29:03;3.63;;;1.47;;
15616;SDS011;7908;51.688;7.130;2022-10-16T14:31:56;3.03;;;1.50;;
15616;SDS011;7908;51.688;7.130;2022-10-16T14:34:38;3.57;;;1.53;;
15616;SDS011;7908;51.688;7.130;2022-10-16T14:37:18;4.33;;;1.60;;
15616;SDS011;7908;51.688;7.130;2022-10-16T14:40:11;1.97;;;1.37;;
15616;SDS011;7908;51.688;7.130;2022-10-16T14:42:46;3.83;;;1.50;;
15616;SDS011;7908;51.688;7.130;2022-10-16T14:45:25;4.13;;;1.50;;
15616;SDS011;7908;51.688;7.130;2022-10-16T14:48:27;3.10;;;1.43;;
15616;SDS011;7908;51.688;7.130;2022-10-16T14:50:57;3.87;;;1.50;;
15616;SDS011;7908;51.688;7.130;2022-10-16T14:53:33;2.43;;;1.73;;
15616;SDS011;7908;51.688;7.130;2022-10-16T14:56:06;4.40;;;1.83;;
15616;SDS011;7908;51.688;7.130;2022-10-16T14:58:49;4.13;;;1.60;;
15616;SDS011;7908;51.688;7.130;2022-10-16T15:01:31;3.50;;;1.50;;
15616;SDS011;7908;51.688;7.130;2022-10-16T15:04:03;2.70;;;1.50;;
15616;SDS011;7908;51.688;7.130;2022-10-16T15:06:36;2.33;;;1.30;;
15616;SDS011;7908;51.688;7.130;2022-10-16T15:09:10;3.07;;;1.50;;
15616;SDS011;7908;51.688;7.130;2022-10-16T15:11:43;3.93;;;1.30;;
15616;SDS011;7908;51.688;7.130;2022-10-16T15:14:22;4.10;;;1.47;;
15616;SDS011;7908;51.688;7.130;2022-10-16T15:17:04;1.53;;;1.17;;
15616;SDS011;7908;51.688;7.130;2022-10-16T15:19:45;2.27;;;1.20;;
15616;SDS011;7908;51.688;7.130;2022-10-16T15:22:21;2.50;;;1.17;;
15616;SDS011;7908;51.688;7.130;2022-10-16T15:24:59;2.97;;;1.20;;
15616;SDS011;7908;51.688;7.130;2022-10-16T15:27:34;2.27;;;1.10;;
15616;SDS011;7908;51.688;7.130;2022-10-16T15:30:12;2.47;;;1.40;;
15616;SDS011;7908;51.688;7.130;2022-10-16T15:32:50;3.47;;;1.50;;
15616;SDS011;7908;51.688;7.130;2022-10-16T15:35:27;2.83;;;1.13;;
15616;SDS011;7908;51.688;7.130;2022-10-16T15:38:08;3.90;;;1.50;;
15616;SDS011;7908;51.688;7.130;2022-10-16T15:40:50;3.10;;;1.40;;
15616;SDS011;7908;51.688;7.130;2022-10-16T15:43:31;3.43;;;1.40;;
15616;SDS011;7908;51.688;7.130;2022-10-16T15:46:09;4.97;;;2.00;;
15616;SDS011;7908;51.688;7.130;2022-10-16T15:48:52;5.43;;;2.70;;
15616;SDS011;7908;51.688;7.130;2022-10-16T15:51:55;5.60;;;2.93;;
15616;SDS011;7908;51.688;7.130;2022-10-16T15:54:26;3.90;;;2.70;;
15616;SDS011;7908;51.688;7.130;2022-10-16T15:57:12;4.80;;;2.63;;
15616;SDS011;7908;51.688;7.130;2022-10-16T15:59:46;4.13;;;2.50;;
15616;SDS011;7908;51.688;7.130;2022-10-16T16:02:17;4.10;;;2.30;;
15616;SDS011;7908;51.688;7.130;2022-10-16T16:05:13;3.13;;;2.00;;
15616;SDS011;7908;51.688;7.130;2022-10-16T16:07:49;2.93;;;2.00;;
15616;SDS011;7908;51.688;7.130;2022-10-16T16:10:29;3.80;;;1.87;;
15616;SDS011;7908;51.688;7.130;2022-10-16T16:16:17;3.03;;;2.10;;